Time;durP1;ratioP1;P1;durP2;ratioP2;P2;SDS_P1;SDS_P2;PMS_P1;PMS_P2;Temp;Humidity;BMP_temperature;BMP_pressure;BME280_temperature;BME280_humidity;BME280_pressure;Samples;Min_cycle;Max_cycle;Signal;HPM_P1;HPM_P2
2021/10/20 00:01:08;;;;;;;5.40;4.07;;;15.20;99.90;;;;;;5030468;28;20246;-70
2021/10/20 00:03:34;;;;;;;4.73;4.33;;;15.30;99.90;;;;;;5030208;28;20229;-70
2021/10/20 00:06:00;;;;;;;4.67;4.27;;;15.20;99.90;;;;;;5030157;28;20219;-70
2021/10/20 00:08:26;;;;;;;4.23;3.73;;;15.20;99.90;;;;;;5028739;28;20178;-70
2021/10/20 00:10:51;;;;;;;4.37;3.73;;;15.30;99.90;;;;;;5029084;28;20424;-70
2021/10/20 00:13:18;;;;;;;5.03;3.93;;;15.30;99.90;;;;;;5029004;28;20632;-70
2021/10/20 00:15:44;;;;;;;4.50;4.10;;;15.20;99.90;;;;;;5029985;28;20435;-70
2021/10/20 00:18:10;;;;;;;5.53;3.60;;;15.30;99.90;;;;;;5028334;28;20434;-70
2021/10/20 00:20:35;;;;;;;5.67;4.03;;;15.20;99.90;;;;;;5030039;28;20502;-70
2021/10/20 00:23:01;;;;;;;5.63;5.13;;;15.20;99.90;;;;;;5030283;28;20178;-70
2021/10/20 00:25:26;;;;;;;4.60;4.00;;;15.20;99.90;;;;;;5029857;27;20927;-71
2021/10/20 00:27:52;;;;;;;5.90;4.37;;;15.20;99.90;;;;;;5028604;28;20182;-70
2021/10/20 00:30:18;;;;;;;4.43;4.03;;;15.20;99.90;;;;;;5030129;28;20559;-70
2021/10/20 00:32:44;;;;;;;4.40;4.00;;;15.20;99.90;;;;;;5030151;28;20599;-70
2021/10/20 00:35:10;;;;;;;4.10;3.80;;;15.20;99.90;;;;;;5028494;28;20438;-71
2021/10/20 00:37:36;;;;;;;4.83;4.30;;;15.10;99.90;;;;;;5030022;28;20497;-70
2021/10/20 00:40:07;;;;;;;4.60;4.00;;;15.20;99.90;;;;;;5027450;27;20195;-71
2021/10/20 00:42:33;;;;;;;4.50;4.17;;;15.10;99.90;;;;;;5020111;28;20747;-70
2021/10/20 00:45:00;;;;;;;7.43;3.87;;;15.10;99.90;;;;;;5009816;28;20902;-70
2021/10/20 00:47:27;;;;;;;4.50;4.20;;;15.10;99.90;;;;;;5010101;28;20459;-70
2021/10/20 00:49:53;;;;;;;5.30;4.70;;;15.10;99.90;;;;;;5009956;28;21115;-71
2021/10/20 00:52:20;;;;;;;4.27;3.97;;;15.00;99.90;;;;;;5011294;28;20839;-71
2021/10/20 00:54:47;;;;;;;4.47;4.03;;;15.10;99.90;;;;;;5009794;28;20410;-71
2021/10/20 00:57:14;;;;;;;4.13;3.83;;;15.10;99.90;;;;;;5009731;28;20455;-71
2021/10/20 00:59:41;;;;;;;4.60;4.20;;;15.10;99.90;;;;;;5009940;28;20505;-71
2021/10/20 01:02:08;;;;;;;4.80;4.40;;;15.10;99.90;;;;;;5009658;27;20485;-71
2021/10/20 01:04:34;;;;;;;4.83;4.43;;;15.00;99.90;;;;;;5010770;28;20795;-70
2021/10/20 01:07:00;;;;;;;4.20;3.80;;;15.00;99.90;;;;;;5009707;28;20438;-70
2021/10/20 01:09:26;;;;;;;4.63;4.23;;;15.00;99.90;;;;;;5009820;28;20443;-70
2021/10/20 01:11:53;;;;;;;5.60;4.60;;;15.00;99.90;;;;;;5008875;28;20504;-71
2021/10/20 01:14:20;;;;;;;4.80;4.27;;;15.00;99.90;;;;;;5010745;28;20176;-70
2021/10/20 01:16:46;;;;;;;5.03;4.50;;;15.00;99.90;;;;;;5009667;28;20435;-70
2021/10/20 01:19:14;;;;;;;4.90;4.45;;;15.00;99.90;;;;;;5009581;27;20473;-71
2021/10/20 01:21:40;;;;;;;6.27;4.60;;;15.00;99.90;;;;;;5009424;28;20267;-70
2021/10/20 01:24:07;;;;;;;4.87;4.33;;;15.00;99.90;;;;;;5010597;28;20422;-71
2021/10/20 01:26:32;;;;;;;4.63;4.23;;;14.90;99.90;;;;;;5009453;28;20481;-70
2021/10/20 01:28:58;;;;;;;6.80;4.40;;;14.90;99.90;;;;;;5009900;28;20411;-70
2021/10/20 01:31:24;;;;;;;4.30;3.90;;;14.90;99.90;;;;;;5009680;28;20493;-71
2021/10/20 01:33:49;;;;;;;4.50;4.20;;;14.90;99.90;;;;;;5009066;27;20195;-70
2021/10/20 01:36:15;;;;;;;5.20;4.30;;;14.90;99.90;;;;;;5010491;28;20446;-71
2021/10/20 01:38:41;;;;;;;7.07;4.30;;;14.90;99.90;;;;;;5008332;28;20176;-70
2021/10/20 01:41:07;;;;;;;5.67;4.20;;;14.90;99.90;;;;;;5009376;28;20200;-71
2021/10/20 01:43:43;;;;;;;4.83;4.43;;;14.90;99.90;;;;;;5009017;28;20418;-70
2021/10/20 01:46:27;;;;;;;4.50;4.10;;;14.90;99.90;;;;;;5010410;28;20252;-70
2021/10/20 01:48:52;;;;;;;5.90;4.57;;;14.90;99.90;;;;;;5009160;27;20442;-71
2021/10/20 01:51:18;;;;;;;4.53;4.23;;;14.90;99.90;;;;;;5009289;28;20429;-71
2021/10/20 01:53:44;;;;;;;4.40;4.00;;;14.90;99.90;;;;;;5012446;28;20179;-70
2021/10/20 01:56:11;;;;;;;5.60;4.40;;;14.90;99.90;;;;;;5013729;28;20202;-70
2021/10/20 01:58:38;;;;;;;5.60;4.70;;;14.90;99.90;;;;;;5012773;28;20183;-70
2021/10/20 02:01:09;;;;;;;4.57;3.63;;;14.90;99.90;;;;;;5012704;28;20481;-70
2021/10/20 02:03:40;;;;;;;4.77;4.33;;;14.90;99.90;;;;;;5012418;27;20430;-70
2021/10/20 02:06:10;;;;;;;5.13;4.63;;;14.90;99.90;;;;;;5012369;28;20438;-71
2021/10/20 02:08:36;;;;;;;4.50;4.10;;;14.90;99.90;;;;;;5013680;28;20419;-71
2021/10/20 02:11:02;;;;;;;4.97;4.50;;;14.90;99.90;;;;;;5012661;28;20483;-71
2021/10/20 02:13:27;;;;;;;4.67;4.27;;;14.90;99.90;;;;;;5012552;28;20180;-71
2021/10/20 02:15:53;;;;;;;4.90;4.50;;;14.90;99.90;;;;;;5012463;28;20499;-71
2021/10/20 02:18:19;;;;;;;4.80;4.40;;;14.90;99.90;;;;;;5013137;28;20912;-71
2021/10/20 02:20:45;;;;;;;5.30;4.23;;;14.90;99.90;;;;;;5012145;28;20211;-71
2021/10/20 02:23:12;;;;;;;5.00;4.50;;;14.90;99.90;;;;;;5012581;28;20425;-71
2021/10/20 02:25:38;;;;;;;5.23;4.73;;;14.90;99.90;;;;;;5011903;27;20477;-70
2021/10/20 02:28:03;;;;;;;5.63;4.77;;;14.90;99.90;;;;;;5013545;28;20500;-70
2021/10/20 02:30:29;;;;;;;5.30;4.80;;;14.90;99.90;;;;;;5013076;28;20182;-70
2021/10/20 02:32:55;;;;;;;5.57;4.50;;;14.80;99.90;;;;;;5012526;28;20411;-71
2021/10/20 02:35:21;;;;;;;4.83;4.43;;;14.90;99.90;;;;;;5012643;28;20203;-71
2021/10/20 02:37:47;;;;;;;4.87;4.43;;;14.90;99.90;;;;;;5012334;27;20192;-71
2021/10/20 02:40:13;;;;;;;5.10;4.43;;;14.80;99.90;;;;;;5034498;28;20440;-71
2021/10/20 02:42:40;;;;;;;7.80;4.83;;;14.80;99.90;;;;;;5020996;28;20698;-71
2021/10/20 02:45:09;;;;;;;5.47;4.97;;;14.80;99.90;;;;;;5011886;28;20407;-71
2021/10/20 02:47:35;;;;;;;6.63;4.60;;;14.80;99.90;;;;;;5011777;27;20445;-70
2021/10/20 02:50:00;;;;;;;5.80;4.87;;;14.70;99.90;;;;;;5011903;28;20457;-70
2021/10/20 02:52:26;;;;;;;4.90;4.50;;;14.80;99.90;;;;;;5016425;28;20593;-71
2021/10/20 02:54:52;;;;;;;5.07;4.57;;;14.80;99.90;;;;;;5031415;28;20555;-71
2021/10/20 02:57:18;;;;;;;5.47;4.63;;;14.70;99.90;;;;;;5031687;28;20419;-71
2021/10/20 02:59:45;;;;;;;5.50;5.00;;;14.80;99.90;;;;;;5031777;28;20584;-70
2021/10/20 03:02:10;;;;;;;6.03;5.17;;;14.70;99.90;;;;;;5031335;27;20197;-71
2021/10/20 03:04:36;;;;;;;5.33;4.90;;;14.70;99.90;;;;;;5038358;28;20467;-71
2021/10/20 03:07:02;;;;;;;5.33;4.87;;;14.80;99.90;;;;;;5031713;28;20436;-71
2021/10/20 03:09:28;;;;;;;4.70;4.30;;;14.80;99.90;;;;;;5031625;28;20410;-70
2021/10/20 03:11:53;;;;;;;8.20;4.60;;;14.80;99.90;;;;;;5029951;28;20194;-71
2021/10/20 03:14:18;;;;;;;5.60;5.00;;;14.80;99.90;;;;;;5030855;28;20202;-70
2021/10/20 03:16:44;;;;;;;4.67;4.30;;;14.80;99.90;;;;;;5031594;28;20228;-71
2021/10/20 03:19:10;;;;;;;5.00;4.30;;;14.70;99.90;;;;;;5032305;28;20247;-70
2021/10/20 03:21:35;;;;;;;5.57;4.70;;;14.80;99.90;;;;;;5031133;27;20218;-71
2021/10/20 03:24:01;;;;;;;6.60;4.67;;;14.70;99.90;;;;;;5030818;28;20245;-71
2021/10/20 03:26:26;;;;;;;4.70;4.20;;;14.70;99.90;;;;;;5031778;28;20546;-71
2021/10/20 03:28:52;;;;;;;5.70;4.70;;;14.70;99.90;;;;;;5031703;28;20167;-71
2021/10/20 03:31:17;;;;;;;5.73;5.10;;;14.70;99.90;;;;;;5030486;28;20263;-70
2021/10/20 03:33:44;;;;;;;5.00;4.50;;;14.70;99.90;;;;;;5029623;28;20179;-70
2021/10/20 03:36:10;;;;;;;4.60;4.20;;;14.70;99.90;;;;;;5031813;28;20199;-71
2021/10/20 03:38:36;;;;;;;5.70;4.30;;;14.70;99.90;;;;;;5030524;28;20887;-72
2021/10/20 03:41:02;;;;;;;4.90;4.43;;;14.70;99.90;;;;;;5030472;27;20888;-71
2021/10/20 03:43:28;;;;;;;5.33;4.83;;;14.80;99.90;;;;;;5027105;28;20501;-71
2021/10/20 03:45:53;;;;;;;6.97;5.13;;;14.80;99.90;;;;;;5026427;28;20471;-71
2021/10/20 03:48:19;;;;;;;5.10;4.70;;;14.70;99.90;;;;;;5031235;28;20225;-72
2021/10/20 03:50:44;;;;;;;6.07;5.20;;;14.70;99.90;;;;;;5031374;28;20202;-71
2021/10/20 03:53:10;;;;;;;5.60;4.37;;;14.80;99.90;;;;;;5031398;28;20171;-71
2021/10/20 03:55:35;;;;;;;4.97;4.27;;;14.80;99.90;;;;;;5029348;28;20672;-71
2021/10/20 03:58:01;;;;;;;6.83;4.50;;;14.80;99.90;;;;;;5031189;28;20171;-71
2021/10/20 04:00:27;;;;;;;6.23;5.10;;;14.80;99.90;;;;;;5031257;27;20193;-71
2021/10/20 04:02:53;;;;;;;5.03;4.53;;;14.80;99.90;;;;;;5031431;28;20190;-71
2021/10/20 04:05:20;;;;;;;5.13;4.63;;;14.70;99.90;;;;;;5029231;28;20445;-71
2021/10/20 04:07:47;;;;;;;5.13;4.63;;;14.80;99.90;;;;;;5030807;28;20417;-71
2021/10/20 04:10:16;;;;;;;6.23;4.53;;;14.80;99.90;;;;;;5031710;28;20531;-71
2021/10/20 04:12:42;;;;;;;5.70;4.40;;;14.80;99.90;;;;;;5030878;28;20447;-71
2021/10/20 04:15:10;;;;;;;5.20;4.70;;;14.80;99.90;;;;;;5027265;27;20441;-71
2021/10/20 04:17:37;;;;;;;6.03;5.20;;;14.80;99.90;;;;;;5031035;28;20179;-71
2021/10/20 04:20:05;;;;;;;8.30;4.53;;;14.70;99.90;;;;;;5031055;28;20459;-71
2021/10/20 04:22:34;;;;;;;4.73;4.23;;;14.80;99.90;;;;;;5030536;28;20453;-71
2021/10/20 04:24:59;;;;;;;5.60;5.10;;;14.80;99.90;;;;;;5030484;27;20418;-71
2021/10/20 04:27:25;;;;;;;5.20;4.80;;;14.80;99.90;;;;;;5029140;28;20422;-70
2021/10/20 04:29:51;;;;;;;13.07;4.60;;;14.80;99.90;;;;;;5030758;28;20185;-71
2021/10/20 04:32:16;;;;;;;5.03;4.30;;;14.80;99.90;;;;;;5029855;28;20937;-71
2021/10/20 04:34:42;;;;;;;4.87;4.47;;;14.80;99.90;;;;;;5030358;28;20175;-71
2021/10/20 04:37:07;;;;;;;5.33;4.70;;;14.80;99.90;;;;;;5028659;27;20211;-71
2021/10/20 04:39:33;;;;;;;5.10;4.70;;;14.90;99.90;;;;;;5030416;28;20176;-71
2021/10/20 04:41:59;;;;;;;6.10;4.57;;;14.90;99.90;;;;;;5025350;28;20234;-70
2021/10/20 04:44:24;;;;;;;5.73;4.70;;;14.90;99.90;;;;;;5010733;28;20195;-72
2021/10/20 04:46:50;;;;;;;4.60;4.20;;;14.90;99.90;;;;;;5010450;27;20238;-71
2021/10/20 04:49:15;;;;;;;8.63;4.80;;;14.90;99.90;;;;;;5011778;28;20215;-70
2021/10/20 04:51:41;;;;;;;7.73;4.83;;;14.90;99.90;;;;;;5011695;28;20493;-70
2021/10/20 04:54:07;;;;;;;5.27;4.50;;;14.90;99.90;;;;;;5025556;28;20267;-71
2021/10/20 04:56:32;;;;;;;4.63;4.23;;;14.90;99.90;;;;;;5030515;28;20327;-71
2021/10/20 04:58:58;;;;;;;7.30;5.03;;;14.90;99.90;;;;;;5032109;28;20175;-71
2021/10/20 05:01:23;;;;;;;5.27;4.77;;;14.90;99.90;;;;;;5030448;28;20199;-71
2021/10/20 05:03:49;;;;;;;5.07;4.70;;;15.00;99.90;;;;;;5029444;27;20281;-71
2021/10/20 05:06:14;;;;;;;6.00;5.20;;;14.90;99.90;;;;;;5029960;28;20929;-71
2021/10/20 05:08:40;;;;;;;5.57;4.60;;;15.00;99.90;;;;;;5011126;27;20468;-71
2021/10/20 05:11:05;;;;;;;5.33;4.83;;;15.00;99.90;;;;;;5100477;28;20238;-72
2021/10/20 05:13:31;;;;;;;6.27;4.63;;;15.00;99.90;;;;;;5057282;27;20215;-71
2021/10/20 05:15:57;;;;;;;5.30;4.50;;;15.00;99.90;;;;;;5055561;28;20228;-71
2021/10/20 05:18:22;;;;;;;5.20;4.70;;;15.10;99.90;;;;;;5084041;27;20218;-71
2021/10/20 05:20:48;;;;;;;7.43;5.20;;;15.10;99.90;;;;;;5099285;28;20206;-70
2021/10/20 05:23:13;;;;;;;5.87;4.80;;;15.10;99.90;;;;;;5108941;27;20223;-71
2021/10/20 05:25:39;;;;;;;4.70;4.30;;;15.10;99.90;;;;;;5033549;28;20199;-71
2021/10/20 05:28:06;;;;;;;5.80;4.93;;;15.10;99.90;;;;;;5012556;27;20793;-71
2021/10/20 05:30:32;;;;;;;4.90;4.50;;;15.10;99.90;;;;;;5011779;28;20657;-70
2021/10/20 05:32:58;;;;;;;5.97;5.03;;;15.10;99.90;;;;;;5014889;27;20464;-71
2021/10/20 05:35:23;;;;;;;5.70;4.43;;;15.10;99.90;;;;;;5013758;27;20817;-71
2021/10/20 05:37:51;;;;;;;5.00;4.57;;;15.10;99.90;;;;;;5009848;27;20454;-71
2021/10/20 05:40:21;;;;;;;8.57;5.90;;;15.10;99.90;;;;;;5011965;28;20199;-71
2021/10/20 05:42:47;;;;;;;5.50;5.00;;;15.10;99.90;;;;;;5010746;27;20442;-73
2021/10/20 05:45:14;;;;;;;5.70;4.77;;;15.10;99.90;;;;;;5012951;28;20433;-72
2021/10/20 05:47:39;;;;;;;6.10;5.50;;;15.10;99.90;;;;;;5011881;27;20441;-72
2021/10/20 05:50:06;;;;;;;5.07;4.67;;;15.10;99.90;;;;;;5011857;28;20427;-71
2021/10/20 05:52:32;;;;;;;7.67;4.77;;;15.20;99.90;;;;;;5013882;28;20186;-71
2021/10/20 05:54:59;;;;;;;4.60;4.20;;;15.10;99.90;;;;;;5018873;28;20467;-72
2021/10/20 05:57:26;;;;;;;4.97;4.53;;;15.10;99.90;;;;;;5012454;27;20460;-71
2021/10/20 05:59:52;;;;;;;6.73;4.30;;;15.10;99.90;;;;;;5011547;28;20452;-70
2021/10/20 06:02:18;;;;;;;7.00;4.70;;;15.10;99.90;;;;;;5011173;28;20460;-71
2021/10/20 06:04:44;;;;;;;6.10;5.50;;;15.10;99.90;;;;;;5011950;28;20470;-71
2021/10/20 06:07:10;;;;;;;5.13;4.60;;;15.10;99.90;;;;;;5016702;28;20282;-71
2021/10/20 06:09:36;;;;;;;8.90;5.17;;;15.10;99.90;;;;;;5033326;28;20810;-71
2021/10/20 06:12:03;;;;;;;5.87;5.27;;;15.10;99.90;;;;;;5033216;27;20462;-71
2021/10/20 06:14:29;;;;;;;6.40;4.43;;;15.10;99.90;;;;;;5033698;28;20457;-70
2021/10/20 06:16:55;;;;;;;5.87;5.27;;;15.10;99.90;;;;;;5036639;28;20534;-71
2021/10/20 06:19:21;;;;;;;5.53;4.93;;;15.10;99.90;;;;;;5021314;28;20274;-71
2021/10/20 06:21:47;;;;;;;5.03;4.50;;;15.10;99.90;;;;;;5014629;28;20203;-71
2021/10/20 06:24:13;;;;;;;5.50;5.00;;;15.10;99.90;;;;;;5011508;28;20444;-71
2021/10/20 06:26:40;;;;;;;6.00;5.40;;;15.20;99.90;;;;;;5013106;28;20434;-71
2021/10/20 06:29:05;;;;;;;6.67;4.93;;;15.20;99.90;;;;;;5025520;28;20755;-71
2021/10/20 06:31:31;;;;;;;5.23;4.73;;;15.20;99.90;;;;;;5032481;28;20410;-70
2021/10/20 06:33:57;;;;;;;5.43;4.90;;;15.20;99.90;;;;;;5032378;28;20414;-70
2021/10/20 06:36:29;;;;;;;5.13;4.63;;;15.20;99.90;;;;;;5032843;27;20203;-71
2021/10/20 06:38:54;;;;;;;7.23;4.93;;;15.20;99.90;;;;;;5027643;28;20233;-71
2021/10/20 06:41:20;;;;;;;5.73;5.10;;;15.20;99.90;;;;;;5012800;28;20852;-70
2021/10/20 06:43:45;;;;;;;5.53;5.03;;;15.20;99.90;;;;;;5012415;28;20182;-70
2021/10/20 06:46:11;;;;;;;5.83;5.33;;;15.20;99.90;;;;;;5012523;28;20203;-71
2021/10/20 06:48:38;;;;;;;6.70;5.30;;;15.30;99.90;;;;;;5010760;28;20218;-72
2021/10/20 06:51:04;;;;;;;6.60;5.50;;;15.30;99.90;;;;;;5012683;28;20221;-71
2021/10/20 06:53:29;;;;;;;5.87;5.20;;;15.30;99.90;;;;;;5013302;28;20434;-71
2021/10/20 06:55:55;;;;;;;6.10;5.23;;;15.30;99.90;;;;;;5012492;28;20950;-71
2021/10/20 06:58:21;;;;;;;5.70;5.17;;;15.20;99.90;;;;;;5012474;27;20175;-72
2021/10/20 07:00:46;;;;;;;5.23;4.73;;;15.20;99.90;;;;;;5012789;28;20206;-71
2021/10/20 07:03:12;;;;;;;5.20;4.80;;;15.20;99.90;;;;;;5014069;28;20263;-71
2021/10/20 07:05:37;;;;;;;6.73;5.10;;;15.30;99.90;;;;;;5014128;28;20645;-71
2021/10/20 07:08:03;;;;;;;5.80;5.30;;;15.30;99.90;;;;;;5013811;28;20198;-72
2021/10/20 07:10:29;;;;;;;6.47;5.73;;;15.30;99.90;;;;;;5013155;28;20511;-72
2021/10/20 07:12:54;;;;;;;8.37;5.70;;;15.30;99.90;;;;;;5011801;27;20199;-71
2021/10/20 07:15:20;;;;;;;5.23;4.83;;;15.30;99.90;;;;;;5012781;28;20200;-72
2021/10/20 07:17:47;;;;;;;5.43;4.93;;;15.40;99.90;;;;;;5012067;28;20185;-70
2021/10/20 07:20:13;;;;;;;5.20;4.77;;;15.40;99.90;;;;;;5011971;28;20403;-70
2021/10/20 07:22:39;;;;;;;5.60;5.00;;;15.50;99.90;;;;;;5011353;28;20815;-71
2021/10/20 07:25:09;;;;;;;5.17;4.77;;;15.50;99.90;;;;;;5012917;27;20196;-71
2021/10/20 07:27:35;;;;;;;6.00;5.40;;;15.50;99.90;;;;;;5010738;28;20172;-70
2021/10/20 07:30:03;;;;;;;7.90;5.50;;;15.50;99.90;;;;;;5011708;28;20471;-70
2021/10/20 07:32:28;;;;;;;7.10;5.43;;;15.50;99.90;;;;;;5012275;28;20407;-70
2021/10/20 07:34:54;;;;;;;6.53;5.73;;;15.60;99.90;;;;;;5012576;27;20455;-70
2021/10/20 07:37:19;;;;;;;6.07;5.57;;;15.60;99.90;;;;;;5012202;28;20546;-71
2021/10/20 07:39:45;;;;;;;6.23;5.70;;;15.60;99.90;;;;;;5011590;28;20198;-71
2021/10/20 07:42:10;;;;;;;6.10;5.50;;;15.70;99.90;;;;;;5011802;28;20208;-71
2021/10/20 07:44:36;;;;;;;6.00;5.50;;;15.70;99.90;;;;;;5011823;28;20572;-71
2021/10/20 07:47:01;;;;;;;6.60;5.40;;;15.80;99.90;;;;;;5012446;27;20272;-71
2021/10/20 07:49:27;;;;;;;6.07;4.77;;;15.80;99.90;;;;;;5011531;28;20199;-71
2021/10/20 07:51:57;;;;;;;7.17;5.40;;;15.80;99.90;;;;;;5011899;28;20662;-71
2021/10/20 07:54:23;;;;;;;6.47;5.70;;;15.80;99.90;;;;;;5011461;28;20183;-71
2021/10/20 07:56:51;;;;;;;6.10;5.50;;;15.80;99.90;;;;;;5014768;28;20442;-70
2021/10/20 07:59:16;;;;;;;5.57;5.07;;;15.80;99.90;;;;;;5011895;28;20414;-70
2021/10/20 08:01:42;;;;;;;8.70;5.50;;;15.80;99.90;;;;;;5012702;28;20462;-72
2021/10/20 08:04:07;;;;;;;7.73;5.37;;;15.80;99.90;;;;;;5015408;27;20213;-72
2021/10/20 08:06:33;;;;;;;6.50;5.70;;;15.80;99.90;;;;;;5022438;28;20553;-71
2021/10/20 08:08:58;;;;;;;5.90;5.30;;;15.80;99.90;;;;;;5022317;28;20240;-72
2021/10/20 08:11:24;;;;;;;9.32;5.60;;;15.80;99.90;;;;;;5011888;28;20494;-72
2021/10/20 08:13:49;;;;;;;6.10;5.53;;;15.90;99.90;;;;;;5011742;27;20618;-71
2021/10/20 08:16:15;;;;;;;5.50;5.07;;;15.90;99.90;;;;;;5012537;28;20286;-72
2021/10/20 08:18:41;;;;;;;6.57;5.47;;;15.90;99.90;;;;;;5012400;28;20214;-71
2021/10/20 08:21:06;;;;;;;6.20;5.70;;;16.00;99.90;;;;;;5011309;28;20249;-72
2021/10/20 08:23:32;;;;;;;5.87;5.27;;;15.90;99.90;;;;;;5011184;27;20191;-72
2021/10/20 08:25:58;;;;;;;6.00;5.40;;;16.00;99.90;;;;;;5010978;28;20191;-71
2021/10/20 08:28:23;;;;;;;6.47;5.47;;;16.00;99.90;;;;;;5012421;28;20501;-72
2021/10/20 08:30:49;;;;;;;6.37;5.57;;;16.00;99.90;;;;;;5011288;28;20215;-71
2021/10/20 08:33:16;;;;;;;5.70;5.13;;;16.00;99.90;;;;;;5011127;28;20179;-71
2021/10/20 08:35:42;;;;;;;6.80;5.23;;;15.90;99.90;;;;;;5010738;27;20211;-71
2021/10/20 08:38:08;;;;;;;5.87;5.23;;;16.00;99.90;;;;;;5010976;28;20414;-72
2021/10/20 08:40:41;;;;;;;5.43;4.93;;;15.90;99.90;;;;;;5012978;28;20426;-71
2021/10/20 08:43:07;;;;;;;7.00;5.77;;;15.90;99.90;;;;;;5024506;28;20173;-71
2021/10/20 08:45:33;;;;;;;5.97;5.00;;;15.90;99.90;;;;;;5029057;28;20426;-71
2021/10/20 08:47:59;;;;;;;5.07;4.63;;;15.90;99.90;;;;;;5030437;27;20915;-71
2021/10/20 08:50:28;;;;;;;7.47;5.30;;;15.90;99.90;;;;;;5030768;28;20714;-71
2021/10/20 08:52:54;;;;;;;8.50;5.50;;;15.90;99.90;;;;;;5029650;28;20422;-71
2021/10/20 08:55:21;;;;;;;5.70;5.30;;;15.90;99.90;;;;;;5031218;28;20430;-72
2021/10/20 08:57:49;;;;;;;6.30;5.70;;;15.90;99.90;;;;;;5030940;28;20824;-71
2021/10/20 09:00:16;;;;;;;8.50;5.63;;;15.90;99.90;;;;;;5030474;27;20422;-72
2021/10/20 09:02:43;;;;;;;6.37;5.77;;;15.90;99.90;;;;;;5029406;28;20468;-71
2021/10/20 09:05:10;;;;;;;9.17;5.80;;;15.90;99.90;;;;;;5032026;28;20410;-71
2021/10/20 09:07:39;;;;;;;6.10;5.50;;;15.90;99.90;;;;;;5034520;28;20413;-72
2021/10/20 09:10:06;;;;;;;7.50;5.70;;;16.00;99.90;;;;;;5039178;28;20791;-72
2021/10/20 09:12:37;;;;;;;6.63;5.43;;;16.00;99.90;;;;;;5029694;28;20432;-71
2021/10/20 09:15:12;;;;;;;6.40;5.00;;;16.00;99.90;;;;;;5026695;27;20566;-72
2021/10/20 09:17:49;;;;;;;6.17;5.53;;;16.00;99.90;;;;;;5030547;28;20417;-71
2021/10/20 09:20:24;;;;;;;6.10;5.50;;;16.10;99.90;;;;;;5030517;28;20405;-71
2021/10/20 09:23:10;;;;;;;7.37;5.73;;;16.10;99.90;;;;;;5030622;28;20414;-71
2021/10/20 09:25:39;;;;;;;5.07;4.67;;;16.20;99.90;;;;;;5032247;28;20817;-72
2021/10/20 09:28:07;;;;;;;8.23;5.60;;;16.20;99.90;;;;;;5031238;27;20510;-72
2021/10/20 09:30:33;;;;;;;5.70;5.20;;;16.20;99.90;;;;;;5030161;28;20956;-71
2021/10/20 09:33:00;;;;;;;6.27;5.77;;;16.30;99.90;;;;;;5035242;28;20783;-72
2021/10/20 09:35:30;;;;;;;6.43;5.83;;;16.30;99.90;;;;;;5035253;28;20457;-71
2021/10/20 09:37:58;;;;;;;6.97;5.97;;;16.30;99.90;;;;;;5030315;28;20871;-72
2021/10/20 09:40:25;;;;;;;6.93;5.03;;;16.40;99.90;;;;;;5030383;28;20761;-72
2021/10/20 09:42:53;;;;;;;6.20;5.60;;;16.40;99.90;;;;;;5027163;27;20938;-72
2021/10/20 09:45:21;;;;;;;6.40;5.67;;;16.40;99.90;;;;;;5030144;28;20883;-71
2021/10/20 09:47:47;;;;;;;6.50;5.50;;;16.40;99.90;;;;;;5030427;28;20414;-71
2021/10/20 09:50:14;;;;;;;6.47;5.87;;;16.40;99.90;;;;;;5029987;28;20429;-71
2021/10/20 09:52:48;;;;;;;5.87;5.20;;;16.40;99.90;;;;;;5021993;28;20194;-71
2021/10/20 09:55:24;;;;;;;5.97;5.40;;;16.40;99.90;;;;;;5008609;28;20533;-72
2021/10/20 09:57:55;;;;;;;6.83;6.00;;;16.30;99.90;;;;;;5010071;28;20414;-72
2021/10/20 10:00:20;;;;;;;6.53;5.77;;;16.30;99.90;;;;;;5010379;27;20427;-71
2021/10/20 10:02:46;;;;;;;5.87;5.37;;;16.30;99.90;;;;;;5010891;28;20849;-71
2021/10/20 10:05:11;;;;;;;6.37;5.77;;;16.30;99.90;;;;;;5008920;28;20412;-72
2021/10/20 10:07:37;;;;;;;6.50;5.90;;;16.30;99.90;;;;;;5010176;28;20410;-71
2021/10/20 10:10:03;;;;;;;6.30;5.70;;;16.40;99.90;;;;;;5010257;28;20249;-71
2021/10/20 10:12:32;;;;;;;5.63;5.20;;;16.40;99.90;;;;;;5011241;27;20196;-71
2021/10/20 10:15:12;;;;;;;7.57;6.87;;;16.40;99.90;;;;;;5015842;28;20501;-71
2021/10/20 10:17:40;;;;;;;6.13;5.53;;;16.40;99.90;;;;;;5013992;28;20994;-72
2021/10/20 10:20:12;;;;;;;7.83;5.77;;;16.30;99.90;;;;;;5017826;28;20416;-69
2021/10/20 10:22:54;;;;;;;5.90;5.40;;;16.30;99.90;;;;;;5014854;28;20454;-70
2021/10/20 10:25:29;;;;;;;6.37;5.80;;;16.40;99.90;;;;;;5028546;27;20995;-71
2021/10/20 10:28:08;;;;;;;6.50;5.90;;;16.40;99.90;;;;;;5034157;28;20529;-71
2021/10/20 10:30:57;;;;;;;6.13;5.63;;;16.40;99.90;;;;;;5034555;28;20412;-70
2021/10/20 10:33:25;;;;;;;6.40;5.80;;;16.40;99.90;;;;;;5034437;28;20454;-70
2021/10/20 10:36:18;;;;;;;6.67;6.07;;;16.40;99.90;;;;;;5031010;27;20454;-70
2021/10/20 10:38:45;;;;;;;6.50;5.90;;;16.40;99.90;;;;;;5033017;28;20403;-71
2021/10/20 10:41:25;;;;;;;7.30;6.10;;;16.40;99.90;;;;;;5033026;28;20458;-70
2021/10/20 10:44:03;;;;;;;7.33;6.63;;;16.30;99.90;;;;;;5031924;28;20418;-70
2021/10/20 10:46:37;;;;;;;8.20;7.40;;;16.30;99.90;;;;;;5033311;27;20837;-70
2021/10/20 10:49:28;;;;;;;7.20;6.53;;;16.30;99.90;;;;;;5032867;27;20452;-71
2021/10/20 10:52:20;;;;;;;7.70;6.90;;;16.20;99.90;;;;;;5022269;27;20933;-71
2021/10/20 10:55:06;;;;;;;7.53;6.63;;;16.20;99.90;;;;;;5012708;28;20485;-70
2021/10/20 10:57:43;;;;;;;7.95;7.25;;;16.20;99.90;;;;;;5011825;28;20453;-71
2021/10/20 11:00:31;;;;;;;8.40;7.00;;;16.30;99.90;;;;;;5012794;27;20699;-71
2021/10/20 11:02:58;;;;;;;7.27;6.57;;;16.30;99.90;;;;;;5015320;28;21031;-70
2021/10/20 11:05:33;;;;;;;7.30;6.60;;;16.30;99.90;;;;;;5012405;28;20423;-71
2021/10/20 11:07:59;;;;;;;7.50;6.77;;;16.40;99.90;;;;;;5013390;28;20392;-71
2021/10/20 11:10:25;;;;;;;8.23;6.97;;;16.40;99.90;;;;;;5012946;28;20407;-71
2021/10/20 11:12:52;;;;;;;8.43;7.67;;;16.40;99.90;;;;;;5013392;27;20429;-71
2021/10/20 11:15:19;;;;;;;8.33;6.70;;;16.30;99.90;;;;;;5014698;28;20552;-71
2021/10/20 11:17:46;;;;;;;9.80;7.47;;;16.30;99.90;;;;;;5015530;28;20442;-71
2021/10/20 11:20:14;;;;;;;8.10;7.30;;;16.30;99.90;;;;;;5033346;28;20395;-71
2021/10/20 11:22:47;;;;;;;10.93;7.13;;;16.30;99.90;;;;;;5032979;28;20482;-71
2021/10/20 11:25:14;;;;;;;8.03;7.23;;;16.20;99.90;;;;;;5025526;27;20947;-72
2021/10/20 11:27:52;;;;;;;8.73;7.83;;;16.20;99.90;;;;;;5032658;28;20390;-72
2021/10/20 11:30:20;;;;;;;8.10;7.30;;;16.20;99.90;;;;;;5032448;28;20394;-71
2021/10/20 11:32:46;;;;;;;8.10;7.13;;;16.30;99.90;;;;;;5032224;28;20410;-71
2021/10/20 11:35:20;;;;;;;10.17;8.17;;;16.30;99.90;;;;;;5033675;28;20531;-71
2021/10/20 11:37:53;;;;;;;7.93;7.17;;;16.30;99.90;;;;;;5035367;28;20456;-71
2021/10/20 11:40:19;;;;;;;8.90;7.10;;;16.30;99.90;;;;;;5034915;27;20425;-71
2021/10/20 11:42:45;;;;;;;8.27;7.47;;;16.20;99.90;;;;;;5033277;28;20453;-71
2021/10/20 11:45:10;;;;;;;9.50;7.10;;;16.20;99.90;;;;;;5031437;28;20734;-71
2021/10/20 11:47:41;;;;;;;8.93;7.47;;;16.20;99.90;;;;;;5028568;28;20647;-71
2021/10/20 11:50:11;;;;;;;7.97;7.27;;;16.20;99.90;;;;;;5031739;28;20227;-71
2021/10/20 11:52:36;;;;;;;8.93;7.97;;;16.20;99.90;;;;;;5031380;27;20454;-71
2021/10/20 11:55:03;;;;;;;8.40;7.63;;;16.10;99.90;;;;;;5029733;28;20724;-71
2021/10/20 11:57:28;;;;;;;10.13;8.33;;;16.10;99.90;;;;;;5027183;28;20176;-71
2021/10/20 11:59:56;;;;;;;8.97;8.07;;;16.20;99.90;;;;;;5013440;28;20460;-72
2021/10/20 12:02:28;;;;;;;10.07;7.87;;;16.10;99.90;;;;;;5012225;28;20192;-71
2021/10/20 12:04:56;;;;;;;9.37;8.30;;;16.10;99.90;;;;;;5013833;27;20466;-71
2021/10/20 12:07:25;;;;;;;10.33;8.43;;;16.10;99.90;;;;;;5013412;28;20803;-71
2021/10/20 12:09:51;;;;;;;8.53;7.43;;;16.20;99.90;;;;;;5013003;28;20395;-72
2021/10/20 12:12:17;;;;;;;8.20;7.37;;;16.20;99.90;;;;;;5011628;28;20418;-71
2021/10/20 12:14:44;;;;;;;9.10;8.13;;;16.20;99.90;;;;;;5012923;28;20489;-72
2021/10/20 12:17:11;;;;;;;8.23;7.37;;;16.30;99.90;;;;;;5014953;27;20463;-71
2021/10/20 12:19:40;;;;;;;8.60;7.60;;;16.40;99.90;;;;;;5014410;28;20414;-72
2021/10/20 12:22:12;;;;;;;8.30;7.33;;;16.50;99.90;;;;;;5013982;28;20484;-72
2021/10/20 12:24:40;;;;;;;8.87;7.27;;;16.50;99.90;;;;;;5019470;28;20407;-71
2021/10/20 12:27:10;;;;;;;9.43;8.33;;;16.60;99.90;;;;;;5014487;28;20519;-71
2021/10/20 12:29:48;;;;;;;8.80;7.23;;;16.60;99.90;;;;;;5011909;28;20411;-72
2021/10/20 12:32:28;;;;;;;7.83;7.03;;;16.60;99.90;;;;;;5011601;27;20430;-71
2021/10/20 12:35:00;;;;;;;9.40;7.20;;;16.80;99.90;;;;;;5011154;28;20426;-71
2021/10/20 12:37:29;;;;;;;8.40;6.73;;;16.80;99.90;;;;;;5012828;28;20422;-72
2021/10/20 12:39:54;;;;;;;8.10;7.30;;;16.80;99.90;;;;;;5012572;28;20471;-71
2021/10/20 12:42:20;;;;;;;8.43;6.80;;;16.90;99.90;;;;;;5020132;28;20449;-71
2021/10/20 12:44:47;;;;;;;8.17;7.47;;;17.00;99.90;;;;;;5031501;28;20163;-72
2021/10/20 12:47:18;;;;;;;8.30;7.50;;;17.10;99.90;;;;;;5033037;27;20523;-72